sensor_id;sensor_type;location;lat;lon;timestamp;P1;durP1;ratioP1;P2;durP2;ratioP2
9848;SDS011;4963;51.444;6.528;2024-02-16T00:00:23;4.47;;;2.43;;
9848;SDS011;4963;51.444;6.528;2024-02-16T00:02:51;6.43;;;2.37;;
9848;SDS011;4963;51.444;6.528;2024-02-16T00:05:18;6.23;;;2.40;;
9848;SDS011;4963;51.444;6.528;2024-02-16T00:07:45;4.00;;;2.17;;
9848;SDS011;4963;51.444;6.528;2024-02-16T00:10:13;5.10;;;2.07;;
9848;SDS011;4963;51.444;6.528;2024-02-16T00:12:43;4.17;;;2.30;;
9848;SDS011;4963;51.444;6.528;2024-02-16T00:15:10;5.23;;;2.00;;
9848;SDS011;4963;51.444;6.528;2024-02-16T00:17:37;3.20;;;2.40;;
9848;SDS011;4963;51.444;6.528;2024-02-16T00:20:05;3.67;;;2.20;;
9848;SDS011;4963;51.444;6.528;2024-02-16T00:22:33;3.93;;;2.33;;
9848;SDS011;4963;51.444;6.528;2024-02-16T00:25:00;3.73;;;2.27;;
9848;SDS011;4963;51.444;6.528;2024-02-16T00:27:29;5.37;;;2.63;;
9848;SDS011;4963;51.444;6.528;2024-02-16T00:29:56;3.80;;;2.37;;
9848;SDS011;4963;51.444;6.528;2024-02-16T00:32:23;3.67;;;2.27;;
9848;SDS011;4963;51.444;6.528;2024-02-16T00:34:55;5.80;;;2.23;;
9848;SDS011;4963;51.444;6.528;2024-02-16T00:37:23;4.80;;;2.03;;
9848;SDS011;4963;51.444;6.528;2024-02-16T00:39:50;2.93;;;2.00;;
9848;SDS011;4963;51.444;6.528;2024-02-16T00:42:19;4.00;;;2.20;;
9848;SDS011;4963;51.444;6.528;2024-02-16T00:44:48;4.87;;;2.60;;
9848;SDS011;4963;51.444;6.528;2024-02-16T00:47:14;5.70;;;2.27;;
9848;SDS011;4963;51.444;6.528;2024-02-16T00:49:42;6.50;;;2.63;;
9848;SDS011;4963;51.444;6.528;2024-02-16T00:52:09;7.27;;;2.30;;
9848;SDS011;4963;51.444;6.528;2024-02-16T00:54:36;3.00;;;2.10;;
9848;SDS011;4963;51.444;6.528;2024-02-16T00:57:03;3.57;;;2.20;;
9848;SDS011;4963;51.444;6.528;2024-02-16T00:59:30;3.13;;;2.20;;
9848;SDS011;4963;51.444;6.528;2024-02-16T01:01:59;9.93;;;2.93;;
9848;SDS011;4963;51.444;6.528;2024-02-16T01:04:25;4.17;;;2.10;;
9848;SDS011;4963;51.444;6.528;2024-02-16T01:06:52;4.43;;;2.30;;
9848;SDS011;4963;51.444;6.528;2024-02-16T01:09:19;5.70;;;2.20;;
9848;SDS011;4963;51.444;6.528;2024-02-16T01:11:46;4.30;;;2.30;;
9848;SDS011;4963;51.444;6.528;2024-02-16T01:14:13;4.47;;;2.10;;
9848;SDS011;4963;51.444;6.528;2024-02-16T01:16:40;6.47;;;2.50;;
9848;SDS011;4963;51.444;6.528;2024-02-16T01:19:09;4.67;;;2.20;;
9848;SDS011;4963;51.444;6.528;2024-02-16T01:21:35;5.50;;;2.53;;
9848;SDS011;4963;51.444;6.528;2024-02-16T01:24:02;5.57;;;2.30;;
9848;SDS011;4963;51.444;6.528;2024-02-16T01:26:30;6.97;;;2.33;;
9848;SDS011;4963;51.444;6.528;2024-02-16T01:28:57;4.33;;;2.23;;
9848;SDS011;4963;51.444;6.528;2024-02-16T01:31:24;4.77;;;2.27;;
9848;SDS011;4963;51.444;6.528;2024-02-16T01:33:51;2.70;;;2.03;;
9848;SDS011;4963;51.444;6.528;2024-02-16T01:36:19;3.53;;;2.20;;
9848;SDS011;4963;51.444;6.528;2024-02-16T01:38:46;4.47;;;2.33;;
9848;SDS011;4963;51.444;6.528;2024-02-16T01:41:13;5.23;;;2.40;;
9848;SDS011;4963;51.444;6.528;2024-02-16T01:43:40;3.70;;;2.33;;
9848;SDS011;4963;51.444;6.528;2024-02-16T01:46:07;3.77;;;2.13;;
9848;SDS011;4963;51.444;6.528;2024-02-16T01:48:34;4.40;;;2.20;;
9848;SDS011;4963;51.444;6.528;2024-02-16T01:51:02;4.70;;;2.10;;
9848;SDS011;4963;51.444;6.528;2024-02-16T01:53:31;4.30;;;2.17;;
9848;SDS011;4963;51.444;6.528;2024-02-16T01:55:58;3.17;;;2.47;;
9848;SDS011;4963;51.444;6.528;2024-02-16T01:58:25;3.00;;;2.07;;
9848;SDS011;4963;51.444;6.528;2024-02-16T02:00:53;5.17;;;2.40;;
9848;SDS011;4963;51.444;6.528;2024-02-16T02:03:20;2.83;;;2.20;;
9848;SDS011;4963;51.444;6.528;2024-02-16T02:05:48;5.53;;;2.60;;
9848;SDS011;4963;51.444;6.528;2024-02-16T02:08:16;4.80;;;2.40;;
9848;SDS011;4963;51.444;6.528;2024-02-16T02:10:44;4.50;;;2.40;;
9848;SDS011;4963;51.444;6.528;2024-02-16T02:13:11;6.80;;;2.67;;
9848;SDS011;4963;51.444;6.528;2024-02-16T02:15:38;3.70;;;2.13;;
9848;SDS011;4963;51.444;6.528;2024-02-16T02:18:05;4.90;;;2.40;;
9848;SDS011;4963;51.444;6.528;2024-02-16T02:20:32;3.97;;;2.43;;
9848;SDS011;4963;51.444;6.528;2024-02-16T02:23:00;4.47;;;2.27;;
9848;SDS011;4963;51.444;6.528;2024-02-16T02:25:27;4.80;;;2.40;;
9848;SDS011;4963;51.444;6.528;2024-02-16T02:27:54;4.60;;;2.10;;
9848;SDS011;4963;51.444;6.528;2024-02-16T02:30:22;4.13;;;2.63;;
9848;SDS011;4963;51.444;6.528;2024-02-16T02:32:49;3.93;;;2.27;;
9848;SDS011;4963;51.444;6.528;2024-02-16T02:35:16;4.77;;;2.60;;
9848;SDS011;4963;51.444;6.528;2024-02-16T02:37:44;4.33;;;2.07;;
9848;SDS011;4963;51.444;6.528;2024-02-16T02:40:13;3.57;;;2.23;;
9848;SDS011;4963;51.444;6.528;2024-02-16T02:42:40;6.57;;;2.50;;
9848;SDS011;4963;51.444;6.528;2024-02-16T02:45:07;4.30;;;2.53;;
9848;SDS011;4963;51.444;6.528;2024-02-16T02:47:34;4.87;;;2.30;;
9848;SDS011;4963;51.444;6.528;2024-02-16T02:50:01;4.13;;;2.20;;
9848;SDS011;4963;51.444;6.528;2024-02-16T02:52:29;4.10;;;2.80;;
9848;SDS011;4963;51.444;6.528;2024-02-16T02:54:56;3.50;;;2.20;;
9848;SDS011;4963;51.444;6.528;2024-02-16T02:57:24;3.50;;;2.43;;
9848;SDS011;4963;51.444;6.528;2024-02-16T02:59:51;4.87;;;2.40;;
9848;SDS011;4963;51.444;6.528;2024-02-16T03:02:18;5.33;;;2.93;;
9848;SDS011;4963;51.444;6.528;2024-02-16T03:04:45;4.40;;;2.27;;
9848;SDS011;4963;51.444;6.528;2024-02-16T03:07:12;4.30;;;2.50;;
9848;SDS011;4963;51.444;6.528;2024-02-16T03:09:40;5.47;;;2.93;;
9848;SDS011;4963;51.444;6.528;2024-02-16T03:12:08;6.47;;;2.80;;
9848;SDS011;4963;51.444;6.528;2024-02-16T03:14:37;4.10;;;2.60;;
9848;SDS011;4963;51.444;6.528;2024-02-16T03:17:04;4.60;;;2.77;;
9848;SDS011;4963;51.444;6.528;2024-02-16T03:19:31;3.93;;;2.33;;
9848;SDS011;4963;51.444;6.528;2024-02-16T03:21:58;6.10;;;2.67;;
9848;SDS011;4963;51.444;6.528;2024-02-16T03:24:25;7.37;;;2.77;;
9848;SDS011;4963;51.444;6.528;2024-02-16T03:26:52;3.97;;;2.43;;
9848;SDS011;4963;51.444;6.528;2024-02-16T03:29:19;4.27;;;2.50;;
9848;SDS011;4963;51.444;6.528;2024-02-16T03:31:47;6.87;;;2.50;;
9848;SDS011;4963;51.444;6.528;2024-02-16T03:34:16;6.73;;;2.47;;
9848;SDS011;4963;51.444;6.528;2024-02-16T03:36:43;5.73;;;2.77;;
9848;SDS011;4963;51.444;6.528;2024-02-16T03:39:10;2.87;;;2.03;;
9848;SDS011;4963;51.444;6.528;2024-02-16T03:41:37;4.40;;;2.73;;
9848;SDS011;4963;51.444;6.528;2024-02-16T03:44:04;3.90;;;2.50;;
9848;SDS011;4963;51.444;6.528;2024-02-16T03:46:31;5.33;;;2.33;;
9848;SDS011;4963;51.444;6.528;2024-02-16T03:48:59;4.57;;;2.40;;
9848;SDS011;4963;51.444;6.528;2024-02-16T03:51:26;8.77;;;2.97;;
9848;SDS011;4963;51.444;6.528;2024-02-16T03:53:54;5.20;;;2.47;;
9848;SDS011;4963;51.444;6.528;2024-02-16T03:56:21;4.67;;;2.63;;
9848;SDS011;4963;51.444;6.528;2024-02-16T03:58:48;5.57;;;2.57;;
9848;SDS011;4963;51.444;6.528;2024-02-16T04:01:14;7.80;;;2.83;;
9848;SDS011;4963;51.444;6.528;2024-02-16T04:03:41;4.27;;;2.30;;
9848;SDS011;4963;51.444;6.528;2024-02-16T04:06:09;3.50;;;2.40;;
9848;SDS011;4963;51.444;6.528;2024-02-16T04:08:36;4.13;;;2.20;;
9848;SDS011;4963;51.444;6.528;2024-02-16T04:11:04;3.60;;;2.80;;
9848;SDS011;4963;51.444;6.528;2024-02-16T04:13:31;4.17;;;2.40;;
9848;SDS011;4963;51.444;6.528;2024-02-16T04:15:58;6.47;;;2.70;;
9848;SDS011;4963;51.444;6.528;2024-02-16T04:18:25;5.30;;;2.83;;
9848;SDS011;4963;51.444;6.528;2024-02-16T04:20:52;5.80;;;2.90;;
9848;SDS011;4963;51.444;6.528;2024-02-16T04:23:20;2.63;;;1.80;;
9848;SDS011;4963;51.444;6.528;2024-02-16T04:25:47;4.37;;;2.60;;
9848;SDS011;4963;51.444;6.528;2024-02-16T04:28:14;4.70;;;2.70;;
9848;SDS011;4963;51.444;6.528;2024-02-16T04:30:43;5.97;;;2.83;;
9848;SDS011;4963;51.444;6.528;2024-02-16T04:33:10;5.80;;;2.33;;
9848;SDS011;4963;51.444;6.528;2024-02-16T04:35:37;6.77;;;2.93;;
9848;SDS011;4963;51.444;6.528;2024-02-16T04:38:04;5.00;;;2.93;;
9848;SDS011;4963;51.444;6.528;2024-02-16T04:43:03;6.33;;;2.70;;
9848;SDS011;4963;51.444;6.528;2024-02-16T04:45:30;5.43;;;2.27;;
9848;SDS011;4963;51.444;6.528;2024-02-16T04:47:57;3.53;;;2.60;;
9848;SDS011;4963;51.444;6.528;2024-02-16T04:50:24;6.43;;;2.40;;
9848;SDS011;4963;51.444;6.528;2024-02-16T04:52:52;3.47;;;2.40;;
9848;SDS011;4963;51.444;6.528;2024-02-16T04:55:19;8.40;;;2.60;;
9848;SDS011;4963;51.444;6.528;2024-02-16T04:57:47;3.53;;;2.03;;
9848;SDS011;4963;51.444;6.528;2024-02-16T05:00:14;7.50;;;2.53;;
9848;SDS011;4963;51.444;6.528;2024-02-16T05:02:41;6.70;;;2.50;;
9848;SDS011;4963;51.444;6.528;2024-02-16T05:05:08;3.80;;;2.50;;
9848;SDS011;4963;51.444;6.528;2024-02-16T05:07:35;6.47;;;2.47;;
9848;SDS011;4963;51.444;6.528;2024-02-16T05:10:03;4.03;;;2.30;;
9848;SDS011;4963;51.444;6.528;2024-02-16T05:12:34;4.83;;;2.30;;
9848;SDS011;4963;51.444;6.528;2024-02-16T05:15:03;5.17;;;2.23;;
9848;SDS011;4963;51.444;6.528;2024-02-16T05:17:31;3.33;;;2.67;;
9848;SDS011;4963;51.444;6.528;2024-02-16T05:19:57;5.17;;;2.30;;
9848;SDS011;4963;51.444;6.528;2024-02-16T05:22:24;3.50;;;2.60;;
9848;SDS011;4963;51.444;6.528;2024-02-16T05:24:51;6.53;;;3.00;;
9848;SDS011;4963;51.444;6.528;2024-02-16T05:27:20;4.13;;;2.60;;
9848;SDS011;4963;51.444;6.528;2024-02-16T05:29:46;5.50;;;2.60;;
9848;SDS011;4963;51.444;6.528;2024-02-16T05:32:17;5.33;;;2.50;;
9848;SDS011;4963;51.444;6.528;2024-02-16T05:34:43;5.93;;;2.70;;
9848;SDS011;4963;51.444;6.528;2024-02-16T05:37:10;3.70;;;3.10;;
9848;SDS011;4963;51.444;6.528;2024-02-16T05:39:40;5.43;;;3.57;;
9848;SDS011;4963;51.444;6.528;2024-02-16T05:42:19;5.50;;;2.80;;
9848;SDS011;4963;51.444;6.528;2024-02-16T05:44:47;3.73;;;2.60;;
9848;SDS011;4963;51.444;6.528;2024-02-16T05:47:14;5.07;;;2.70;;
9848;SDS011;4963;51.444;6.528;2024-02-16T05:49:42;4.63;;;2.90;;
9848;SDS011;4963;51.444;6.528;2024-02-16T05:52:11;6.90;;;3.03;;
9848;SDS011;4963;51.444;6.528;2024-02-16T05:54:44;5.57;;;2.87;;
9848;SDS011;4963;51.444;6.528;2024-02-16T05:57:11;5.77;;;2.40;;
9848;SDS011;4963;51.444;6.528;2024-02-16T05:59:38;3.53;;;2.30;;
9848;SDS011;4963;51.444;6.528;2024-02-16T06:02:07;4.93;;;2.60;;
9848;SDS011;4963;51.444;6.528;2024-02-16T06:04:35;6.13;;;2.80;;
9848;SDS011;4963;51.444;6.528;2024-02-16T06:07:04;5.30;;;2.70;;
9848;SDS011;4963;51.444;6.528;2024-02-16T06:09:31;2.50;;;2.00;;
9848;SDS011;4963;51.444;6.528;2024-02-16T06:12:00;3.27;;;2.60;;
9848;SDS011;4963;51.444;6.528;2024-02-16T06:14:29;3.90;;;2.50;;
9848;SDS011;4963;51.444;6.528;2024-02-16T06:16:56;6.70;;;2.80;;
9848;SDS011;4963;51.444;6.528;2024-02-16T06:19:24;4.40;;;2.40;;
9848;SDS011;4963;51.444;6.528;2024-02-16T06:21:51;3.43;;;2.33;;
9848;SDS011;4963;51.444;6.528;2024-02-16T06:24:20;4.63;;;2.30;;
9848;SDS011;4963;51.444;6.528;2024-02-16T06:26:48;5.03;;;2.80;;
9848;SDS011;4963;51.444;6.528;2024-02-16T06:29:15;7.33;;;2.70;;
9848;SDS011;4963;51.444;6.528;2024-02-16T06:31:42;4.67;;;2.73;;
9848;SDS011;4963;51.444;6.528;2024-02-16T06:34:08;5.60;;;2.60;;
9848;SDS011;4963;51.444;6.528;2024-02-16T06:36:35;5.10;;;2.73;;
9848;SDS011;4963;51.444;6.528;2024-02-16T06:39:02;6.77;;;2.37;;
9848;SDS011;4963;51.444;6.528;2024-02-16T06:41:31;5.67;;;2.87;;
9848;SDS011;4963;51.444;6.528;2024-02-16T06:43:58;3.97;;;2.50;;
9848;SDS011;4963;51.444;6.528;2024-02-16T06:46:24;4.90;;;2.70;;
9848;SDS011;4963;51.444;6.528;2024-02-16T06:48:53;4.90;;;3.20;;
9848;SDS011;4963;51.444;6.528;2024-02-16T06:51:21;7.80;;;3.00;;
9848;SDS011;4963;51.444;6.528;2024-02-16T06:53:48;3.97;;;2.57;;
9848;SDS011;4963;51.444;6.528;2024-02-16T06:56:16;9.00;;;2.67;;
9848;SDS011;4963;51.444;6.528;2024-02-16T06:58:45;5.83;;;2.80;;
9848;SDS011;4963;51.444;6.528;2024-02-16T07:01:12;6.80;;;3.00;;
9848;SDS011;4963;51.444;6.528;2024-02-16T07:03:40;5.27;;;2.97;;
9848;SDS011;4963;51.444;6.528;2024-02-16T07:06:07;4.20;;;2.67;;
9848;SDS011;4963;51.444;6.528;2024-02-16T07:08:35;4.13;;;2.90;;
9848;SDS011;4963;51.444;6.528;2024-02-16T07:11:03;6.80;;;2.97;;
9848;SDS011;4963;51.444;6.528;2024-02-16T07:13:30;4.30;;;2.80;;
9848;SDS011;4963;51.444;6.528;2024-02-16T07:15:59;4.73;;;2.77;;
9848;SDS011;4963;51.444;6.528;2024-02-16T07:18:26;7.03;;;2.90;;
9848;SDS011;4963;51.444;6.528;2024-02-16T07:20:55;6.13;;;3.23;;
9848;SDS011;4963;51.444;6.528;2024-02-16T07:23:24;5.33;;;3.07;;
9848;SDS011;4963;51.444;6.528;2024-02-16T07:25:51;6.63;;;3.20;;
9848;SDS011;4963;51.444;6.528;2024-02-16T07:28:20;5.20;;;2.90;;
9848;SDS011;4963;51.444;6.528;2024-02-16T07:30:47;4.97;;;2.77;;
9848;SDS011;4963;51.444;6.528;2024-02-16T07:33:14;5.20;;;3.10;;
9848;SDS011;4963;51.444;6.528;2024-02-16T07:35:41;6.00;;;3.10;;
9848;SDS011;4963;51.444;6.528;2024-02-16T07:38:09;3.60;;;2.57;;
9848;SDS011;4963;51.444;6.528;2024-02-16T07:40:36;6.27;;;2.83;;
9848;SDS011;4963;51.444;6.528;2024-02-16T07:43:03;3.33;;;2.60;;
9848;SDS011;4963;51.444;6.528;2024-02-16T07:45:33;8.53;;;3.03;;
9848;SDS011;4963;51.444;6.528;2024-02-16T07:48:00;4.97;;;2.27;;
9848;SDS011;4963;51.444;6.528;2024-02-16T07:50:31;5.67;;;2.70;;
9848;SDS011;4963;51.444;6.528;2024-02-16T07:52:58;8.00;;;3.30;;
9848;SDS011;4963;51.444;6.528;2024-02-16T07:55:25;5.50;;;3.00;;
9848;SDS011;4963;51.444;6.528;2024-02-16T07:57:52;6.97;;;2.90;;
9848;SDS011;4963;51.444;6.528;2024-02-16T08:00:19;4.87;;;3.07;;
9848;SDS011;4963;51.444;6.528;2024-02-16T08:02:46;3.70;;;2.67;;
9848;SDS011;4963;51.444;6.528;2024-02-16T08:05:14;8.63;;;3.60;;
9848;SDS011;4963;51.444;6.528;2024-02-16T08:07:47;4.53;;;2.90;;
9848;SDS011;4963;51.444;6.528;2024-02-16T08:10:18;4.43;;;2.80;;
9848;SDS011;4963;51.444;6.528;2024-02-16T08:12:46;5.90;;;2.80;;
9848;SDS011;4963;51.444;6.528;2024-02-16T08:15:13;8.83;;;2.60;;
9848;SDS011;4963;51.444;6.528;2024-02-16T08:17:40;7.05;;;3.45;;
9848;SDS011;4963;51.444;6.528;2024-02-16T08:20:09;5.60;;;2.97;;
9848;SDS011;4963;51.444;6.528;2024-02-16T08:22:36;8.90;;;3.57;;
9848;SDS011;4963;51.444;6.528;2024-02-16T08:25:05;4.53;;;3.17;;
9848;SDS011;4963;51.444;6.528;2024-02-16T08:27:34;6.85;;;2.88;;
9848;SDS011;4963;51.444;6.528;2024-02-16T08:30:03;7.57;;;3.03;;
9848;SDS011;4963;51.444;6.528;2024-02-16T08:32:34;4.85;;;2.55;;
9848;SDS011;4963;51.444;6.528;2024-02-16T08:35:00;6.38;;;3.35;;
9848;SDS011;4963;51.444;6.528;2024-02-16T08:37:28;5.85;;;2.88;;
9848;SDS011;4963;51.444;6.528;2024-02-16T08:39:55;5.57;;;3.10;;
9848;SDS011;4963;51.444;6.528;2024-02-16T08:42:23;7.47;;;3.10;;
9848;SDS011;4963;51.444;6.528;2024-02-16T08:44:50;5.45;;;2.65;;
9848;SDS011;4963;51.444;6.528;2024-02-16T08:47:17;5.60;;;3.13;;
9848;SDS011;4963;51.444;6.528;2024-02-16T08:49:44;6.80;;;3.45;;
9848;SDS011;4963;51.444;6.528;2024-02-16T08:52:11;6.13;;;3.20;;
9848;SDS011;4963;51.444;6.528;2024-02-16T08:54:38;5.07;;;3.20;;
9848;SDS011;4963;51.444;6.528;2024-02-16T08:57:04;6.15;;;3.65;;
9848;SDS011;4963;51.444;6.528;2024-02-16T08:59:33;5.53;;;3.33;;
9848;SDS011;4963;51.444;6.528;2024-02-16T09:02:00;6.10;;;3.20;;
9848;SDS011;4963;51.444;6.528;2024-02-16T09:04:27;5.18;;;3.08;;
9848;SDS011;4963;51.444;6.528;2024-02-16T09:06:54;5.38;;;2.83;;
9848;SDS011;4963;51.444;6.528;2024-02-16T09:09:21;5.72;;;2.97;;
9848;SDS011;4963;51.444;6.528;2024-02-16T09:11:48;7.28;;;3.42;;
9848;SDS011;4963;51.444;6.528;2024-02-16T09:14:15;4.57;;;3.40;;
9848;SDS011;4963;51.444;6.528;2024-02-16T09:16:43;5.35;;;3.05;;
9848;SDS011;4963;51.444;6.528;2024-02-16T09:19:10;4.18;;;2.60;;
9848;SDS011;4963;51.444;6.528;2024-02-16T09:21:37;7.32;;;3.03;;
9848;SDS011;4963;51.444;6.528;2024-02-16T09:24:04;5.50;;;3.30;;
9848;SDS011;4963;51.444;6.528;2024-02-16T09:26:35;6.95;;;3.25;;
9848;SDS011;4963;51.444;6.528;2024-02-16T09:29:02;5.05;;;3.13;;
9848;SDS011;4963;51.444;6.528;2024-02-16T09:31:29;3.78;;;2.50;;
9848;SDS011;4963;51.444;6.528;2024-02-16T09:33:57;5.22;;;3.00;;
9848;SDS011;4963;51.444;6.528;2024-02-16T09:36:24;5.65;;;3.03;;
9848;SDS011;4963;51.444;6.528;2024-02-16T09:38:54;6.45;;;2.88;;
9848;SDS011;4963;51.444;6.528;2024-02-16T09:41:21;6.55;;;3.05;;
9848;SDS011;4963;51.444;6.528;2024-02-16T09:43:47;8.30;;;3.00;;
9848;SDS011;4963;51.444;6.528;2024-02-16T09:46:19;5.40;;;2.85;;
9848;SDS011;4963;51.444;6.528;2024-02-16T09:48:47;7.70;;;2.60;;
9848;SDS011;4963;51.444;6.528;2024-02-16T09:51:19;5.05;;;3.00;;
9848;SDS011;4963;51.444;6.528;2024-02-16T09:53:49;5.50;;;3.10;;
9848;SDS011;4963;51.444;6.528;2024-02-16T09:56:18;4.85;;;3.03;;
9848;SDS011;4963;51.444;6.528;2024-02-16T09:58:46;6.38;;;3.20;;
9848;SDS011;4963;51.444;6.528;2024-02-16T10:01:17;6.00;;;3.40;;
9848;SDS011;4963;51.444;6.528;2024-02-16T10:03:45;4.97;;;2.78;;
9848;SDS011;4963;51.444;6.528;2024-02-16T10:06:13;8.50;;;3.35;;
9848;SDS011;4963;51.444;6.528;2024-02-16T10:08:48;4.70;;;2.95;;
9848;SDS011;4963;51.444;6.528;2024-02-16T10:11:16;5.57;;;3.05;;
9848;SDS011;4963;51.444;6.528;2024-02-16T10:13:53;4.30;;;2.92;;
9848;SDS011;4963;51.444;6.528;2024-02-16T10:16:21;4.65;;;2.83;;
9848;SDS011;4963;51.444;6.528;2024-02-16T10:18:48;7.40;;;3.60;;
9848;SDS011;4963;51.444;6.528;2024-02-16T10:21:23;6.32;;;3.50;;
9848;SDS011;4963;51.444;6.528;2024-02-16T10:24:02;6.20;;;2.80;;
9848;SDS011;4963;51.444;6.528;2024-02-16T10:26:33;4.78;;;2.92;;
9848;SDS011;4963;51.444;6.528;2024-02-16T10:29:02;5.90;;;2.47;;
9848;SDS011;4963;51.444;6.528;2024-02-16T10:31:30;7.57;;;3.25;;
9848;SDS011;4963;51.444;6.528;2024-02-16T10:33:58;7.22;;;3.83;;
9848;SDS011;4963;51.444;6.528;2024-02-16T10:36:27;6.78;;;3.17;;
9848;SDS011;4963;51.444;6.528;2024-02-16T10:38:54;5.47;;;2.83;;
9848;SDS011;4963;51.444;6.528;2024-02-16T10:41:25;5.90;;;2.70;;
9848;SDS011;4963;51.444;6.528;2024-02-16T10:43:55;8.02;;;3.63;;
9848;SDS011;4963;51.444;6.528;2024-02-16T10:46:22;6.68;;;3.42;;
9848;SDS011;4963;51.444;6.528;2024-02-16T10:48:50;4.75;;;3.28;;
9848;SDS011;4963;51.444;6.528;2024-02-16T10:51:19;9.45;;;3.78;;
9848;SDS011;4963;51.444;6.528;2024-02-16T10:53:49;4.57;;;2.95;;
9848;SDS011;4963;51.444;6.528;2024-02-16T10:56:27;6.97;;;3.15;;
9848;SDS011;4963;51.444;6.528;2024-02-16T10:58:59;6.95;;;3.40;;
9848;SDS011;4963;51.444;6.528;2024-02-16T11:01:31;8.73;;;3.83;;
9848;SDS011;4963;51.444;6.528;2024-02-16T11:04:03;6.82;;;3.65;;
9848;SDS011;4963;51.444;6.528;2024-02-16T11:06:33;6.78;;;3.72;;
9848;SDS011;4963;51.444;6.528;2024-02-16T11:09:11;7.07;;;3.33;;
9848;SDS011;4963;51.444;6.528;2024-02-16T11:11:39;9.55;;;4.10;;
9848;SDS011;4963;51.444;6.528;2024-02-16T11:14:16;6.28;;;3.20;;
9848;SDS011;4963;51.444;6.528;2024-02-16T11:16:43;6.38;;;3.55;;
9848;SDS011;4963;51.444;6.528;2024-02-16T11:19:11;5.07;;;3.13;;
9848;SDS011;4963;51.444;6.528;2024-02-16T11:21:54;6.80;;;3.90;;
9848;SDS011;4963;51.444;6.528;2024-02-16T11:24:33;6.00;;;3.40;;
9848;SDS011;4963;51.444;6.528;2024-02-16T11:27:05;9.25;;;4.55;;
9848;SDS011;4963;51.444;6.528;2024-02-16T11:29:34;5.72;;;3.40;;
9848;SDS011;4963;51.444;6.528;2024-02-16T11:32:03;10.32;;;4.13;;
9848;SDS011;4963;51.444;6.528;2024-02-16T11:34:31;5.20;;;3.40;;
9848;SDS011;4963;51.444;6.528;2024-02-16T11:36:59;7.53;;;3.50;;
9848;SDS011;4963;51.444;6.528;2024-02-16T11:39:27;5.47;;;3.72;;
9848;SDS011;4963;51.444;6.528;2024-02-16T11:42:00;7.68;;;3.65;;
9848;SDS011;4963;51.444;6.528;2024-02-16T11:44:29;6.95;;;3.83;;
9848;SDS011;4963;51.444;6.528;2024-02-16T11:46:58;6.95;;;3.95;;
9848;SDS011;4963;51.444;6.528;2024-02-16T11:49:25;9.20;;;4.10;;
9848;SDS011;4963;51.444;6.528;2024-02-16T11:51:52;8.25;;;3.83;;
9848;SDS011;4963;51.444;6.528;2024-02-16T11:54:19;10.00;;;4.35;;
9848;SDS011;4963;51.444;6.528;2024-02-16T11:56:47;8.52;;;3.75;;
9848;SDS011;4963;51.444;6.528;2024-02-16T11:59:16;11.18;;;4.13;;
9848;SDS011;4963;51.444;6.528;2024-02-16T12:01:52;11.30;;;4.30;;
9848;SDS011;4963;51.444;6.528;2024-02-16T12:04:21;10.63;;;3.97;;
9848;SDS011;4963;51.444;6.528;2024-02-16T12:06:50;7.18;;;3.45;;
9848;SDS011;4963;51.444;6.528;2024-02-16T12:09:19;6.93;;;4.18;;
9848;SDS011;4963;51.444;6.528;2024-02-16T12:11:46;9.05;;;4.22;;
9848;SDS011;4963;51.444;6.528;2024-02-16T12:14:14;9.73;;;4.40;;
9848;SDS011;4963;51.444;6.528;2024-02-16T12:16:41;8.15;;;4.18;;
9848;SDS011;4963;51.444;6.528;2024-02-16T12:19:11;11.18;;;4.85;;
9848;SDS011;4963;51.444;6.528;2024-02-16T12:21:41;12.48;;;5.38;;
9848;SDS011;4963;51.444;6.528;2024-02-16T12:24:08;6.55;;;4.07;;
9848;SDS011;4963;51.444;6.528;2024-02-16T12:26:37;8.43;;;4.40;;
9848;SDS011;4963;51.444;6.528;2024-02-16T12:29:06;8.50;;;4.43;;
9848;SDS011;4963;51.444;6.528;2024-02-16T12:31:33;9.40;;;4.93;;
9848;SDS011;4963;51.444;6.528;2024-02-16T12:34:06;7.32;;;4.50;;
9848;SDS011;4963;51.444;6.528;2024-02-16T12:36:35;12.02;;;5.10;;
9848;SDS011;4963;51.444;6.528;2024-02-16T12:39:06;8.88;;;4.68;;
9848;SDS011;4963;51.444;6.528;2024-02-16T12:41:35;9.57;;;5.00;;
9848;SDS011;4963;51.444;6.528;2024-02-16T12:44:03;8.13;;;4.85;;
9848;SDS011;4963;51.444;6.528;2024-02-16T12:46:34;9.02;;;5.60;;
9848;SDS011;4963;51.444;6.528;2024-02-16T12:49:01;9.35;;;4.95;;
9848;SDS011;4963;51.444;6.528;2024-02-16T12:51:28;7.50;;;5.00;;
9848;SDS011;4963;51.444;6.528;2024-02-16T12:53:59;7.85;;;4.82;;
9848;SDS011;4963;51.444;6.528;2024-02-16T12:56:28;8.95;;;5.88;;
9848;SDS011;4963;51.444;6.528;2024-02-16T12:58:55;9.07;;;4.53;;
9848;SDS011;4963;51.444;6.528;2024-02-16T13:01:25;13.27;;;6.85;;
9848;SDS011;4963;51.444;6.528;2024-02-16T13:03:52;11.07;;;6.17;;
9848;SDS011;4963;51.444;6.528;2024-02-16T13:06:19;10.85;;;5.90;;
9848;SDS011;4963;51.444;6.528;2024-02-16T13:08:46;14.70;;;6.38;;
9848;SDS011;4963;51.444;6.528;2024-02-16T13:11:17;10.45;;;5.95;;
9848;SDS011;4963;51.444;6.528;2024-02-16T13:13:44;9.27;;;5.47;;
9848;SDS011;4963;51.444;6.528;2024-02-16T13:16:11;8.27;;;6.05;;
9848;SDS011;4963;51.444;6.528;2024-02-16T13:18:38;14.07;;;6.63;;
9848;SDS011;4963;51.444;6.528;2024-02-16T13:21:06;14.07;;;6.60;;
9848;SDS011;4963;51.444;6.528;2024-02-16T13:23:33;8.02;;;5.45;;
9848;SDS011;4963;51.444;6.528;2024-02-16T13:26:00;9.70;;;6.05;;
9848;SDS011;4963;51.444;6.528;2024-02-16T13:28:28;9.25;;;6.28;;
9848;SDS011;4963;51.444;6.528;2024-02-16T13:30:55;10.88;;;6.45;;
9848;SDS011;4963;51.444;6.528;2024-02-16T13:33:23;12.55;;;6.72;;
9848;SDS011;4963;51.444;6.528;2024-02-16T13:35:50;12.05;;;6.57;;
9848;SDS011;4963;51.444;6.528;2024-02-16T13:38:17;11.48;;;6.75;;
9848;SDS011;4963;51.444;6.528;2024-02-16T13:40:44;9.20;;;7.05;;
9848;SDS011;4963;51.444;6.528;2024-02-16T13:43:11;10.63;;;6.20;;
9848;SDS011;4963;51.444;6.528;2024-02-16T13:45:49;10.15;;;7.00;;
9848;SDS011;4963;51.444;6.528;2024-02-16T13:48:17;8.30;;;6.05;;
9848;SDS011;4963;51.444;6.528;2024-02-16T13:50:45;9.82;;;6.60;;
9848;SDS011;4963;51.444;6.528;2024-02-16T13:53:13;12.93;;;6.47;;
9848;SDS011;4963;51.444;6.528;2024-02-16T13:55:41;10.65;;;6.47;;
9848;SDS011;4963;51.444;6.528;2024-02-16T13:58:08;9.98;;;6.63;;
9848;SDS011;4963;51.444;6.528;2024-02-16T14:00:34;10.13;;;6.95;;
9848;SDS011;4963;51.444;6.528;2024-02-16T14:03:05;10.85;;;6.80;;
9848;SDS011;4963;51.444;6.528;2024-02-16T14:05:34;8.00;;;6.45;;
9848;SDS011;4963;51.444;6.528;2024-02-16T14:08:02;8.20;;;5.95;;
9848;SDS011;4963;51.444;6.528;2024-02-16T14:10:30;9.35;;;6.90;;
9848;SDS011;4963;51.444;6.528;2024-02-16T14:12:57;10.53;;;6.00;;
9848;SDS011;4963;51.444;6.528;2024-02-16T14:15:24;7.85;;;5.43;;
9848;SDS011;4963;51.444;6.528;2024-02-16T14:17:52;7.20;;;6.22;;
9848;SDS011;4963;51.444;6.528;2024-02-16T14:20:21;8.32;;;6.45;;
9848;SDS011;4963;51.444;6.528;2024-02-16T14:22:48;10.02;;;6.30;;
9848;SDS011;4963;51.444;6.528;2024-02-16T14:25:17;8.40;;;6.43;;
9848;SDS011;4963;51.444;6.528;2024-02-16T14:27:44;8.05;;;6.47;;
9848;SDS011;4963;51.444;6.528;2024-02-16T14:30:11;8.18;;;6.55;;
9848;SDS011;4963;51.444;6.528;2024-02-16T14:32:39;7.67;;;6.17;;
9848;SDS011;4963;51.444;6.528;2024-02-16T14:35:07;6.43;;;5.33;;
9848;SDS011;4963;51.444;6.528;2024-02-16T14:37:37;7.07;;;5.53;;
9848;SDS011;4963;51.444;6.528;2024-02-16T14:40:04;9.02;;;5.63;;
9848;SDS011;4963;51.444;6.528;2024-02-16T14:42:35;7.70;;;6.13;;
9848;SDS011;4963;51.444;6.528;2024-02-16T14:45:02;6.28;;;5.18;;
9848;SDS011;4963;51.444;6.528;2024-02-16T14:47:30;7.75;;;5.47;;
9848;SDS011;4963;51.444;6.528;2024-02-16T14:49:57;7.30;;;5.20;;
9848;SDS011;4963;51.444;6.528;2024-02-16T14:52:24;8.02;;;5.28;;
9848;SDS011;4963;51.444;6.528;2024-02-16T14:54:53;6.63;;;5.30;;
9848;SDS011;4963;51.444;6.528;2024-02-16T14:57:20;6.97;;;5.18;;
9848;SDS011;4963;51.444;6.528;2024-02-16T14:59:50;5.60;;;5.07;;
9848;SDS011;4963;51.444;6.528;2024-02-16T15:02:20;7.43;;;5.78;;
9848;SDS011;4963;51.444;6.528;2024-02-16T15:04:47;5.70;;;4.77;;
9848;SDS011;4963;51.444;6.528;2024-02-16T15:07:14;7.03;;;5.47;;
9848;SDS011;4963;51.444;6.528;2024-02-16T15:12:15;6.10;;;4.88;;
9848;SDS011;4963;51.444;6.528;2024-02-16T15:14:44;8.05;;;5.20;;
9848;SDS011;4963;51.444;6.528;2024-02-16T15:17:12;7.05;;;5.22;;
9848;SDS011;4963;51.444;6.528;2024-02-16T15:19:40;6.85;;;5.05;;
9848;SDS011;4963;51.444;6.528;2024-02-16T15:22:07;7.38;;;5.25;;
9848;SDS011;4963;51.444;6.528;2024-02-16T15:24:34;5.07;;;4.50;;